createdAt,value
2019-04-05T00:00:25.357Z,99.90
2019-04-05T00:02:53.809Z,99.90
2019-04-05T00:05:22.290Z,99.90
2019-04-05T00:07:50.744Z,99.90
2019-04-05T00:10:19.269Z,99.90
2019-04-05T00:12:47.901Z,99.90
2019-04-05T00:15:16.404Z,99.90
2019-04-05T00:17:44.990Z,99.90
2019-04-05T00:20:15.062Z,99.90
2019-04-05T00:22:43.553Z,99.90
2019-04-05T00:25:12.202Z,99.90
2019-04-05T00:27:40.648Z,99.90
2019-04-05T00:30:10.284Z,99.90
2019-04-05T00:32:41.116Z,99.90
2019-04-05T00:35:09.936Z,99.90
2019-04-05T00:37:38.471Z,99.90
2019-04-05T00:40:10.134Z,99.90
2019-04-05T00:42:38.634Z,99.90
2019-04-05T00:45:08.636Z,99.90
2019-04-05T00:47:37.158Z,99.90
2019-04-05T00:50:07.550Z,99.90
2019-04-05T00:52:36.134Z,99.90
2019-04-05T00:55:06.951Z,99.90
2019-04-05T00:57:35.651Z,99.90
2019-04-05T01:00:05.569Z,99.90
2019-04-05T01:02:34.188Z,99.90
2019-04-05T01:05:02.744Z,99.90
2019-04-05T01:07:32.035Z,99.90
2019-04-05T01:10:00.576Z,99.90
2019-04-05T01:12:29.031Z,99.90
2019-04-05T01:14:57.635Z,99.90
2019-04-05T01:17:26.443Z,99.90
2019-04-05T01:19:58.002Z,99.90
2019-04-05T01:22:28.469Z,99.90
2019-04-05T01:24:58.260Z,99.90
2019-04-05T01:27:29.215Z,99.90
2019-04-05T01:29:57.753Z,99.90
2019-04-05T01:32:26.452Z,99.90
2019-04-05T01:34:55.072Z,99.90
2019-04-05T01:37:23.706Z,99.90
2019-04-05T01:39:52.194Z,99.90
2019-04-05T01:42:20.792Z,99.90
2019-04-05T01:44:51.868Z,99.90
2019-04-05T01:47:19.947Z,99.90
2019-04-05T01:49:48.385Z,99.90
2019-04-05T01:52:17.011Z,99.90
2019-04-05T01:54:45.496Z,99.90
2019-04-05T01:57:13.936Z,99.90
2019-04-05T01:59:42.416Z,99.90
2019-04-05T02:02:10.968Z,99.90
2019-04-05T02:04:39.587Z,99.90
2019-04-05T02:07:08.484Z,99.90
2019-04-05T02:09:37.763Z,99.90
2019-04-05T02:12:06.847Z,99.90
2019-04-05T02:14:35.745Z,99.90
2019-04-05T02:17:04.631Z,99.90
2019-04-05T02:19:33.533Z,99.90
2019-04-05T02:22:02.463Z,99.90
2019-04-05T02:24:31.324Z,99.90
2019-04-05T02:27:00.231Z,99.90
2019-04-05T02:29:29.098Z,99.90
2019-04-05T02:31:57.688Z,99.90
2019-04-05T02:34:26.157Z,99.90
2019-04-05T02:36:54.772Z,99.90
2019-04-05T02:39:23.256Z,99.90
2019-04-05T02:41:53.642Z,99.90
2019-04-05T02:44:22.956Z,99.90
2019-04-05T02:46:54.286Z,99.90
2019-04-05T02:49:25.632Z,99.90
2019-04-05T02:51:55.005Z,99.90
2019-04-05T02:54:24.588Z,99.90
2019-04-05T02:56:53.222Z,99.90
2019-04-05T02:59:22.639Z,99.90
2019-04-05T03:01:51.256Z,99.90
2019-04-05T03:04:19.722Z,99.90
2019-04-05T03:06:49.630Z,99.90
2019-04-05T03:09:18.998Z,99.90
2019-04-05T03:11:48.971Z,99.90
2019-04-05T03:14:18.390Z,99.90
2019-04-05T03:16:50.297Z,99.90
2019-04-05T03:19:21.470Z,99.90
2019-04-05T03:21:53.009Z,99.90
2019-04-05T03:24:24.744Z,99.90
2019-04-05T03:26:56.290Z,99.90
2019-04-05T03:29:25.149Z,99.90
2019-04-05T03:31:53.884Z,99.90
2019-04-05T03:34:23.052Z,99.90
2019-04-05T03:36:52.399Z,99.90
2019-04-05T03:39:22.240Z,99.90
2019-04-05T03:41:51.034Z,99.90
2019-04-05T03:44:23.031Z,99.90
2019-04-05T03:46:56.862Z,99.90
2019-04-05T03:49:21.492Z,99.90
2019-04-05T03:51:50.185Z,99.90
2019-04-05T03:54:18.740Z,99.90
2019-04-05T03:56:47.485Z,99.90
2019-04-05T03:59:16.156Z,99.90
2019-04-05T04:01:45.175Z,99.90
2019-04-05T04:04:13.987Z,99.90
2019-04-05T04:06:42.512Z,99.90
2019-04-05T04:09:11.678Z,99.90
2019-04-05T04:11:40.285Z,99.90
2019-04-05T04:14:09.560Z,99.90
2019-04-05T04:16:38.689Z,99.90
2019-04-05T04:19:07.480Z,99.90
2019-04-05T04:22:03.212Z,99.90
2019-04-05T04:24:32.572Z,99.90
2019-04-05T04:27:01.264Z,99.90
2019-04-05T04:29:30.012Z,99.90
2019-04-05T04:31:58.993Z,99.90
2019-04-05T04:34:28.326Z,99.90
2019-04-05T04:36:56.968Z,99.90
2019-04-05T04:39:25.738Z,99.90
2019-04-05T04:41:54.471Z,99.90
2019-04-05T04:44:23.374Z,99.90
2019-04-05T04:46:51.872Z,99.90
2019-04-05T04:49:20.691Z,99.90
2019-04-05T04:51:49.511Z,99.90
2019-04-05T04:54:18.416Z,99.90
2019-04-05T04:56:47.258Z,99.90
2019-04-05T04:59:15.859Z,99.90
2019-04-05T05:01:44.834Z,99.90
2019-04-05T05:04:13.791Z,99.90
2019-04-05T05:06:42.978Z,99.90
2019-04-05T05:09:11.943Z,99.90
2019-04-05T05:11:40.535Z,99.90
2019-04-05T05:14:09.265Z,99.90
2019-04-05T05:16:37.885Z,99.90
2019-04-05T05:19:06.785Z,99.90
2019-04-05T05:21:35.815Z,99.90
2019-04-05T05:24:04.818Z,99.90
2019-04-05T05:26:33.772Z,99.90
2019-04-05T05:29:02.370Z,99.90
2019-04-05T05:31:31.057Z,99.90
2019-04-05T05:33:59.608Z,99.90
2019-04-05T05:36:28.272Z,99.90
2019-04-05T05:38:57.092Z,99.90
2019-04-05T05:41:25.707Z,99.90
2019-04-05T05:43:54.250Z,99.90
2019-04-05T05:46:22.821Z,99.90
2019-04-05T05:48:51.415Z,99.90
2019-04-05T05:51:20.116Z,99.90
2019-04-05T05:53:48.876Z,99.90
2019-04-05T05:56:17.348Z,99.90
2019-04-05T05:58:45.811Z,99.90
2019-04-05T06:01:14.316Z,99.90
2019-04-05T06:03:42.902Z,99.90
2019-04-05T06:06:11.407Z,99.90
2019-04-05T06:08:39.880Z,99.90
2019-04-05T06:11:08.562Z,99.90
2019-04-05T06:13:37.145Z,99.90
2019-04-05T06:16:05.683Z,99.90
2019-04-05T06:18:34.154Z,99.90
2019-04-05T06:21:04.232Z,99.90
2019-04-05T06:23:33.959Z,99.90
2019-04-05T06:26:02.917Z,99.90
2019-04-05T06:28:31.439Z,99.90
2019-04-05T06:31:01.520Z,99.90
2019-04-05T06:33:32.014Z,99.90
2019-04-05T06:36:00.733Z,99.90
2019-04-05T06:38:29.183Z,99.90
2019-04-05T06:40:57.821Z,99.90
2019-04-05T06:43:26.299Z,99.90
2019-04-05T06:45:54.839Z,99.90
2019-04-05T06:48:23.470Z,99.90
2019-04-05T06:50:52.002Z,99.90
2019-04-05T06:53:20.455Z,99.90
2019-04-05T06:55:49.000Z,99.90
2019-04-05T06:58:20.533Z,99.90
2019-04-05T07:00:56.778Z,99.90
2019-04-05T07:03:17.945Z,99.90
2019-04-05T07:05:46.427Z,99.90
2019-04-05T07:08:18.070Z,99.90
2019-04-05T07:10:45.398Z,99.90
2019-04-05T07:13:14.026Z,99.90
2019-04-05T07:15:42.635Z,99.90
2019-04-05T07:18:11.105Z,99.90
2019-04-05T07:20:39.563Z,99.90
2019-04-05T07:23:08.201Z,99.90
2019-04-05T07:25:36.660Z,99.90
2019-04-05T07:28:05.376Z,99.90
2019-04-05T07:30:33.936Z,99.90
2019-04-05T07:33:02.478Z,99.90
2019-04-05T07:35:33.638Z,99.90
2019-04-05T07:38:01.791Z,99.90
2019-04-05T07:40:30.259Z,99.90
2019-04-05T07:42:58.774Z,99.90
2019-04-05T07:45:27.315Z,99.90
2019-04-05T07:47:55.814Z,99.90
2019-04-05T07:50:24.416Z,99.90
2019-04-05T07:52:52.901Z,99.90
2019-04-05T07:55:21.378Z,99.90
2019-04-05T07:57:49.908Z,99.90
2019-04-05T08:00:42.772Z,99.90
2019-04-05T08:03:11.881Z,99.90
2019-04-05T08:05:40.587Z,99.90
2019-04-05T08:08:12.235Z,99.90
2019-04-05T08:10:41.627Z,99.90
2019-04-05T08:13:11.695Z,99.90
2019-04-05T08:15:40.400Z,99.90
2019-04-05T08:18:08.873Z,99.90
2019-04-05T08:20:37.327Z,99.90
2019-04-05T08:23:05.796Z,99.90
2019-04-05T08:25:34.260Z,99.90
2019-04-05T08:28:02.866Z,99.90
2019-04-05T08:30:31.377Z,99.90
2019-04-05T08:32:59.985Z,99.90
2019-04-05T08:35:28.516Z,99.90
2019-04-05T08:37:56.993Z,99.90
2019-04-05T08:40:26.414Z,99.90
2019-04-05T08:42:54.954Z,99.90
2019-04-05T08:45:23.546Z,99.90
2019-04-05T08:47:52.047Z,99.90
2019-04-05T08:50:20.581Z,99.90
2019-04-05T08:52:49.104Z,99.90
2019-04-05T08:55:17.559Z,99.90
2019-04-05T08:57:48.094Z,99.90
2019-04-05T09:00:16.675Z,99.90
2019-04-05T09:02:45.244Z,99.90
2019-04-05T09:05:13.976Z,99.90
2019-04-05T09:07:42.418Z,99.90
2019-04-05T09:10:11.124Z,99.90
2019-04-05T09:12:39.689Z,99.90
2019-04-05T09:15:08.211Z,99.90
2019-04-05T09:17:36.663Z,99.90
2019-04-05T09:20:05.749Z,99.90
2019-04-05T09:22:34.245Z,99.40
2019-04-05T09:25:03.725Z,98.50
2019-04-05T09:27:32.189Z,98.70
2019-04-05T09:30:01.112Z,99.00
2019-04-05T09:32:29.571Z,98.50
2019-04-05T09:34:58.063Z,98.30
2019-04-05T09:37:26.586Z,98.10
2019-04-05T09:39:56.368Z,97.60
2019-04-05T09:42:24.825Z,98.30
2019-04-05T09:44:53.304Z,97.80
2019-04-05T09:47:21.748Z,98.10
2019-04-05T09:49:50.230Z,97.30
2019-04-05T09:52:18.687Z,98.00
2019-04-05T09:54:47.139Z,97.10
2019-04-05T09:57:15.685Z,96.40
2019-04-05T09:59:44.143Z,97.10
2019-04-05T10:02:12.664Z,97.70
2019-04-05T10:04:41.164Z,97.80
2019-04-05T10:07:09.697Z,96.60
2019-04-05T10:09:39.069Z,97.00
2019-04-05T10:12:07.618Z,96.90
2019-04-05T10:14:36.914Z,96.90
2019-04-05T10:17:05.835Z,96.60
2019-04-05T10:19:34.313Z,94.10
2019-04-05T10:22:02.837Z,94.00
2019-04-05T10:24:33.093Z,94.10
2019-04-05T10:27:01.508Z,94.20
2019-04-05T10:29:29.967Z,95.00
2019-04-05T10:31:58.417Z,94.90
2019-04-05T10:34:26.977Z,94.50
2019-04-05T10:36:55.435Z,95.10
2019-04-05T10:39:23.899Z,95.20
2019-04-05T10:42:02.749Z,94.20
2019-04-05T10:44:22.571Z,94.00
2019-04-05T10:46:51.040Z,92.80
2019-04-05T10:49:19.517Z,93.80
2019-04-05T10:51:48.056Z,95.50
2019-04-05T10:54:16.612Z,95.60
2019-04-05T10:56:45.061Z,95.20
2019-04-05T10:59:13.594Z,94.60
2019-04-05T11:01:42.070Z,93.90
2019-04-05T11:04:10.598Z,93.80
2019-04-05T11:06:39.137Z,92.30
2019-04-05T11:09:08.256Z,91.50
2019-04-05T11:11:37.104Z,91.40
2019-04-05T11:14:13.752Z,90.70
2019-04-05T11:16:35.882Z,91.70
2019-04-05T11:19:04.434Z,87.20
2019-04-05T11:21:33.116Z,87.40
2019-04-05T11:24:01.564Z,89.60
2019-04-05T11:26:30.044Z,90.00
2019-04-05T11:28:58.537Z,85.10
2019-04-05T11:31:27.088Z,85.70
2019-04-05T11:33:55.630Z,82.10
2019-04-05T11:36:25.166Z,80.70
2019-04-05T11:38:54.436Z,81.90
2019-04-05T11:41:24.731Z,82.90
2019-04-05T11:43:54.319Z,79.70
2019-04-05T11:46:22.863Z,77.90
2019-04-05T11:48:52.052Z,80.30
2019-04-05T11:51:20.544Z,82.20
2019-04-05T11:53:49.098Z,79.20
2019-04-05T11:56:20.095Z,80.40
2019-04-05T11:58:49.186Z,78.90
2019-04-05T12:01:23.252Z,78.70
2019-04-05T12:03:50.550Z,79.60
2019-04-05T12:06:19.035Z,80.40
2019-04-05T12:08:47.589Z,80.90
2019-04-05T12:11:16.193Z,82.90
2019-04-05T12:13:47.631Z,79.50
2019-04-05T12:16:16.127Z,77.70
2019-04-05T12:18:44.599Z,83.70
2019-04-05T12:21:13.096Z,83.70
2019-04-05T12:23:41.918Z,84.20
2019-04-05T12:26:10.399Z,84.40
2019-04-05T12:28:39.023Z,84.00
2019-04-05T12:31:07.578Z,84.20
2019-04-05T12:33:36.321Z,84.90
2019-04-05T12:36:05.366Z,82.90
2019-04-05T12:38:34.077Z,81.20
2019-04-05T12:41:03.387Z,82.50
2019-04-05T12:43:32.192Z,86.30
2019-04-05T12:46:01.241Z,86.20
2019-04-05T12:48:29.780Z,84.40
2019-04-05T12:51:01.283Z,86.90
2019-04-05T12:53:28.615Z,84.50
2019-04-05T12:55:57.145Z,86.80
2019-04-05T12:58:26.581Z,87.00
2019-04-05T13:00:56.148Z,85.60
2019-04-05T13:03:25.534Z,86.80
2019-04-05T13:05:56.963Z,90.30
2019-04-05T13:08:24.234Z,90.80
2019-04-05T13:10:55.501Z,91.00
2019-04-05T13:13:26.446Z,91.30
2019-04-05T13:15:53.589Z,91.40
2019-04-05T13:18:24.875Z,89.90
2019-04-05T13:20:52.251Z,90.10
2019-04-05T13:23:21.220Z,89.30
2019-04-05T13:25:49.836Z,90.10
2019-04-05T13:28:19.063Z,90.90
2019-04-05T13:30:49.293Z,91.60
2019-04-05T13:33:18.186Z,90.10
2019-04-05T13:35:46.738Z,87.30
2019-04-05T13:38:15.192Z,88.50
2019-04-05T13:40:43.711Z,88.00
2019-04-05T13:43:12.176Z,90.60
2019-04-05T13:45:40.713Z,87.00
2019-04-05T13:48:09.736Z,89.40
2019-04-05T13:50:41.431Z,89.60
2019-04-05T13:53:11.114Z,90.60
2019-04-05T13:55:40.747Z,90.90
2019-04-05T13:58:11.157Z,91.00
2019-04-05T14:00:40.107Z,91.50
2019-04-05T14:03:08.592Z,92.70
2019-04-05T14:05:37.190Z,92.50
2019-04-05T14:08:10.190Z,92.10
2019-04-05T14:10:36.014Z,92.30
2019-04-05T14:13:04.461Z,92.40
2019-04-05T14:15:33.274Z,93.10
2019-04-05T14:18:01.811Z,93.40
2019-04-05T14:20:30.356Z,93.30
2019-04-05T14:22:58.893Z,93.60
2019-04-05T14:25:30.117Z,93.40
2019-04-05T14:27:57.758Z,93.60
2019-04-05T14:30:26.239Z,93.20
2019-04-05T14:32:55.747Z,93.00
2019-04-05T14:35:25.286Z,93.40
2019-04-05T14:37:54.603Z,94.90
2019-04-05T14:40:28.379Z,95.10
2019-04-05T14:42:55.357Z,95.00
2019-04-05T14:45:23.812Z,96.00
2019-04-05T14:47:52.295Z,95.60
2019-04-05T14:50:20.860Z,95.00
2019-04-05T14:52:49.738Z,95.30
2019-04-05T14:55:18.432Z,95.80
2019-04-05T14:57:46.893Z,97.20
2019-04-05T15:00:16.977Z,96.70
2019-04-05T15:02:45.894Z,97.50
2019-04-05T15:05:15.995Z,97.60
2019-04-05T15:07:44.527Z,97.40
2019-04-05T15:10:13.412Z,97.20
2019-04-05T15:12:41.854Z,98.30
2019-04-05T15:15:10.838Z,98.10
2019-04-05T15:17:48.059Z,98.00
2019-04-05T15:20:09.906Z,97.80
2019-04-05T15:22:41.352Z,98.80
2019-04-05T15:25:09.796Z,98.70
2019-04-05T15:27:38.314Z,98.90
2019-04-05T15:30:07.588Z,98.60
2019-04-05T15:32:37.219Z,98.50
2019-04-05T15:35:07.701Z,98.80
2019-04-05T15:37:37.634Z,98.90
2019-04-05T15:40:07.859Z,99.10
2019-04-05T15:42:36.391Z,99.50
2019-04-05T15:45:08.209Z,99.20
2019-04-05T15:47:36.800Z,99.70
2019-04-05T15:50:07.555Z,99.80
2019-04-05T15:52:36.282Z,99.80
2019-04-05T15:55:06.781Z,99.90
2019-04-05T15:57:35.305Z,99.90
2019-04-05T16:00:07.150Z,99.90
2019-04-05T16:02:35.633Z,99.90
2019-04-05T16:05:05.724Z,99.90
2019-04-05T16:07:34.184Z,99.90
2019-04-05T16:10:03.128Z,99.90
2019-04-05T16:12:31.582Z,99.90
2019-04-05T16:15:00.039Z,99.90
2019-04-05T16:17:28.526Z,99.90
2019-04-05T16:19:57.024Z,99.90
2019-04-05T16:22:31.254Z,99.90
2019-04-05T16:24:55.697Z,99.90
2019-04-05T16:27:24.165Z,99.90
2019-04-05T16:29:52.636Z,99.90
2019-04-05T16:32:21.134Z,99.90
2019-04-05T16:34:49.604Z,99.90
2019-04-05T16:37:18.060Z,99.90
2019-04-05T16:39:46.534Z,99.90
2019-04-05T16:42:15.032Z,99.90
2019-04-05T16:44:44.123Z,99.90
2019-04-05T16:47:12.668Z,99.90
2019-04-05T16:49:41.221Z,99.90
2019-04-05T16:52:09.749Z,99.90
2019-04-05T16:54:38.301Z,99.90
2019-04-05T16:57:06.765Z,99.90
2019-04-05T16:59:35.319Z,99.90
2019-04-05T17:02:04.459Z,99.90
2019-04-05T17:04:33.024Z,99.90
2019-04-05T17:07:01.492Z,99.90
2019-04-05T17:09:30.036Z,99.90
2019-04-05T17:11:58.683Z,99.90
2019-04-05T17:14:27.151Z,99.90
2019-04-05T17:16:55.631Z,99.90
2019-04-05T17:19:24.113Z,99.90
2019-04-05T17:21:52.593Z,99.90
2019-04-05T17:24:21.073Z,99.90
2019-04-05T17:26:49.554Z,99.90
2019-04-05T17:29:18.256Z,99.90
2019-04-05T17:31:46.900Z,99.90
2019-04-05T17:34:15.386Z,99.90
2019-04-05T17:36:43.897Z,99.90
2019-04-05T17:39:12.736Z,99.90
2019-04-05T17:41:41.323Z,99.90
2019-04-05T17:44:09.939Z,99.90
2019-04-05T17:46:38.776Z,99.90
2019-04-05T17:49:07.837Z,99.90
2019-04-05T17:51:36.585Z,99.90
2019-04-05T17:54:05.424Z,99.90
2019-04-05T17:56:33.974Z,99.90
2019-04-05T17:59:03.379Z,99.90
2019-04-05T18:01:31.979Z,99.90
2019-04-05T18:04:00.453Z,99.90
2019-04-05T18:06:28.935Z,99.90
2019-04-05T18:08:57.409Z,99.90
2019-04-05T18:11:25.881Z,99.90
2019-04-05T18:13:54.344Z,99.90
2019-04-05T18:16:22.908Z,99.90
2019-04-05T18:18:52.547Z,99.90
2019-04-05T18:21:21.022Z,99.90
2019-04-05T18:23:49.585Z,99.90
2019-04-05T18:26:18.164Z,99.90
2019-04-05T18:28:46.684Z,99.90
2019-04-05T18:31:15.182Z,99.90
2019-04-05T18:33:43.720Z,99.90
2019-04-05T18:36:12.226Z,99.90
2019-04-05T18:38:40.867Z,99.90
2019-04-05T18:41:09.371Z,99.90
2019-04-05T18:43:37.863Z,99.90
2019-04-05T18:46:06.460Z,99.90
2019-04-05T18:48:35.148Z,99.90
2019-04-05T18:51:03.684Z,99.90
2019-04-05T18:53:38.043Z,99.90
2019-04-05T18:56:02.478Z,99.90
2019-04-05T18:58:31.026Z,99.90
2019-04-05T19:00:59.490Z,99.90
2019-04-05T19:03:27.968Z,99.90
2019-04-05T19:05:56.450Z,99.90
2019-04-05T19:08:24.903Z,99.90
2019-04-05T19:10:53.411Z,99.90
2019-04-05T19:13:21.972Z,99.90
2019-04-05T19:15:50.504Z,99.90
2019-04-05T19:18:19.014Z,99.90
2019-04-05T19:20:47.526Z,99.90
2019-04-05T19:23:15.987Z,99.90
2019-04-05T19:25:46.608Z,99.90
2019-04-05T19:28:14.653Z,99.90
2019-04-05T19:48:30.925Z,99.90
2019-04-05T19:50:45.819Z,99.90
2019-04-05T19:53:14.279Z,99.90
2019-04-05T19:55:42.765Z,99.90
2019-04-05T19:58:11.307Z,99.90
2019-04-05T20:00:39.832Z,99.90
2019-04-05T20:03:08.322Z,99.90
2019-04-05T20:05:36.792Z,99.90
2019-04-05T20:08:05.312Z,99.90
2019-04-05T20:10:33.789Z,99.90
2019-04-05T20:13:02.267Z,99.90
2019-04-05T20:15:30.744Z,99.90
2019-04-05T20:17:59.219Z,99.90
2019-04-05T20:20:27.752Z,99.90
2019-04-05T20:22:56.308Z,99.90
2019-04-05T20:25:24.778Z,99.90
2019-04-05T20:27:53.891Z,99.90
2019-04-05T20:30:22.385Z,99.90
2019-04-05T20:32:50.855Z,99.90
2019-04-05T20:35:19.317Z,99.90
2019-04-05T20:37:47.877Z,99.90
2019-04-05T20:40:16.334Z,99.90
2019-04-05T20:42:44.813Z,99.90
2019-04-05T20:45:13.496Z,99.90
2019-04-05T20:47:41.984Z,99.90
2019-04-05T20:50:10.528Z,99.90
2019-04-05T20:52:38.984Z,99.90
2019-04-05T20:55:08.053Z,99.90
2019-04-05T20:57:36.537Z,99.90
2019-04-05T21:00:08.007Z,99.90
2019-04-05T21:02:36.473Z,99.90
2019-04-05T21:05:06.591Z,99.90
2019-04-05T21:07:35.094Z,99.90
2019-04-05T21:10:05.596Z,99.90
2019-04-05T21:12:34.088Z,99.90
2019-04-05T21:15:02.633Z,99.90
2019-04-05T21:17:31.098Z,99.90
2019-04-05T21:19:59.571Z,99.90
2019-04-05T21:22:28.049Z,99.90
2019-04-05T21:24:56.503Z,99.90
2019-04-05T21:27:25.828Z,99.90
2019-04-05T21:29:54.312Z,99.90
2019-04-05T21:32:22.818Z,99.90
2019-04-05T21:34:51.588Z,99.90
2019-04-05T21:37:20.052Z,99.90
2019-04-05T21:39:48.630Z,99.90
2019-04-05T21:42:17.193Z,99.90
2019-04-05T21:44:46.469Z,99.90
2019-04-05T21:47:15.112Z,99.90
2019-04-05T21:49:43.678Z,99.90
2019-04-05T21:52:12.247Z,99.90
2019-04-05T21:54:47.438Z,99.90
2019-04-05T21:57:11.021Z,99.90
2019-04-05T21:59:39.590Z,99.90
2019-04-05T22:02:08.149Z,99.90
2019-04-05T22:04:36.747Z,99.90
2019-04-05T22:07:05.449Z,99.90
2019-04-05T22:09:34.021Z,99.90
2019-04-05T22:12:02.571Z,99.90
2019-04-05T22:14:31.111Z,99.90
2019-04-05T22:16:59.663Z,99.90
2019-04-05T22:19:28.262Z,99.90
2019-04-05T22:21:56.831Z,99.90
2019-04-05T22:24:25.624Z,99.90
2019-04-05T22:26:54.186Z,99.90
2019-04-05T22:29:22.766Z,99.90
2019-04-05T22:31:51.331Z,99.90
2019-04-05T22:34:19.908Z,99.90
2019-04-05T22:36:48.496Z,99.90
2019-04-05T22:39:17.261Z,99.90
2019-04-05T22:41:45.831Z,99.90
2019-04-05T22:44:14.459Z,99.90
2019-04-05T22:46:42.996Z,99.90
2019-04-05T22:49:11.571Z,99.90
2019-04-05T22:51:40.163Z,99.90
2019-04-05T22:56:40.624Z,99.90
2019-04-05T22:59:09.204Z,99.90
2019-04-05T23:01:37.811Z,99.90
2019-04-05T23:04:06.384Z,99.90
2019-04-05T23:06:34.956Z,99.90
2019-04-05T23:09:05.854Z,99.90
2019-04-05T23:11:34.448Z,99.90
2019-04-05T23:14:03.093Z,99.90
2019-04-05T23:16:31.723Z,99.90
2019-04-05T23:19:00.335Z,99.90
2019-04-05T23:21:28.903Z,99.90
2019-04-05T23:23:57.557Z,99.90
2019-04-05T23:26:26.098Z,99.90
2019-04-05T23:28:54.663Z,99.90
2019-04-05T23:31:23.295Z,99.90
2019-04-05T23:33:51.886Z,99.90
2019-04-05T23:36:20.467Z,99.90
2019-04-05T23:38:49.042Z,99.90
2019-04-05T23:41:17.605Z,99.90
2019-04-05T23:43:46.170Z,99.90
2019-04-05T23:46:14.754Z,99.90
2019-04-05T23:48:43.454Z,99.90
2019-04-05T23:51:12.036Z,99.90
2019-04-05T23:53:40.596Z,99.90
2019-04-05T23:56:09.163Z,99.90
2019-04-05T23:58:37.752Z,99.90
